createdAt,value
2022-10-26T00:02:01.793Z,1.70
2022-10-26T00:04:28.380Z,2.00
2022-10-26T00:06:54.901Z,2.10
2022-10-26T00:09:21.458Z,1.70
2022-10-26T00:11:47.971Z,1.60
2022-10-26T00:14:14.456Z,1.23
2022-10-26T00:16:40.961Z,1.30
2022-10-26T00:19:07.495Z,1.30
2022-10-26T00:21:34.006Z,1.13
2022-10-26T00:24:00.567Z,1.40
2022-10-26T00:26:27.078Z,1.53
2022-10-26T00:28:53.563Z,1.20
2022-10-26T00:31:20.116Z,1.30
2022-10-26T00:33:46.604Z,1.80
2022-10-26T00:36:13.124Z,2.00
2022-10-26T00:38:39.669Z,2.20
2022-10-26T00:41:06.170Z,1.80
2022-10-26T00:43:32.689Z,1.87
2022-10-26T00:45:59.255Z,1.43
2022-10-26T00:48:25.728Z,1.20
2022-10-26T00:50:52.242Z,1.10
2022-10-26T00:53:18.793Z,0.90
2022-10-26T00:55:45.308Z,1.27
2022-10-26T00:58:11.782Z,1.37
2022-10-26T01:00:38.334Z,1.40
2022-10-26T01:03:04.855Z,1.00
2022-10-26T01:05:31.377Z,0.97
2022-10-26T01:07:57.850Z,1.20
2022-10-26T01:10:24.361Z,1.10
2022-10-26T01:12:50.877Z,1.10
2022-10-26T01:15:17.360Z,1.17
2022-10-26T01:17:43.885Z,1.00
2022-10-26T01:20:10.426Z,1.00
2022-10-26T01:22:36.949Z,1.13
2022-10-26T01:25:03.481Z,1.03
2022-10-26T01:27:30.005Z,1.00
2022-10-26T01:29:56.526Z,1.10
2022-10-26T01:32:23.027Z,1.07
2022-10-26T01:34:49.533Z,1.20
2022-10-26T01:37:16.050Z,0.90
2022-10-26T01:39:42.606Z,1.10
2022-10-26T01:42:09.089Z,1.53
2022-10-26T01:44:35.549Z,1.43
2022-10-26T01:47:02.101Z,1.50
2022-10-26T01:49:28.645Z,1.90
2022-10-26T01:51:55.169Z,1.60
2022-10-26T01:54:21.701Z,2.07
2022-10-26T01:56:48.245Z,1.80
2022-10-26T01:59:14.720Z,1.60
2022-10-26T02:01:41.310Z,1.30
2022-10-26T02:04:07.989Z,1.10
2022-10-26T02:06:34.589Z,1.30
2022-10-26T02:09:02.120Z,1.87
2022-10-26T02:11:28.655Z,1.60
2022-10-26T02:13:55.164Z,1.60
2022-10-26T02:16:21.707Z,1.10
2022-10-26T02:18:48.224Z,1.30
2022-10-26T02:21:14.744Z,1.63
2022-10-26T02:23:41.241Z,1.60
2022-10-26T02:26:07.756Z,1.77
2022-10-26T02:28:34.264Z,1.80
2022-10-26T02:31:00.793Z,2.13
2022-10-26T02:33:27.314Z,1.67
2022-10-26T02:35:53.875Z,1.50
2022-10-26T02:38:20.384Z,1.40
2022-10-26T02:40:46.902Z,1.13
2022-10-26T02:43:13.399Z,1.10
2022-10-26T02:45:39.921Z,1.00
2022-10-26T02:48:06.441Z,1.10
2022-10-26T02:50:32.924Z,0.93
2022-10-26T02:52:59.455Z,0.90
2022-10-26T02:55:25.966Z,0.97
2022-10-26T02:57:52.479Z,1.00
2022-10-26T03:00:19.022Z,0.97
2022-10-26T03:02:48.368Z,1.33
2022-10-26T03:05:15.306Z,1.50
2022-10-26T03:07:41.818Z,1.20
2022-10-26T03:10:08.358Z,1.20
2022-10-26T03:12:34.869Z,1.40
2022-10-26T03:15:01.407Z,1.80
2022-10-26T03:17:27.897Z,2.17
2022-10-26T03:19:54.410Z,1.60
2022-10-26T03:22:20.893Z,1.60
2022-10-26T03:24:47.425Z,1.10
2022-10-26T03:27:13.981Z,1.40
2022-10-26T03:29:40.497Z,2.30
2022-10-26T03:32:07.007Z,2.10
2022-10-26T03:34:33.548Z,2.03
2022-10-26T03:37:00.076Z,1.20
2022-10-26T03:39:26.604Z,1.03
2022-10-26T03:44:20.585Z,2.07
2022-10-26T03:46:47.092Z,1.73
2022-10-26T03:49:13.647Z,2.50
2022-10-26T03:51:40.169Z,3.00
2022-10-26T03:54:06.681Z,2.70
2022-10-26T03:56:33.244Z,2.60
2022-10-26T03:58:59.753Z,4.27
2022-10-26T04:01:26.301Z,2.70
2022-10-26T04:03:52.925Z,1.27
2022-10-26T04:06:19.495Z,1.00
2022-10-26T04:08:46.000Z,0.93
2022-10-26T04:11:12.521Z,1.50
2022-10-26T04:13:39.048Z,1.60
2022-10-26T04:16:05.572Z,2.20
2022-10-26T04:18:32.089Z,2.20
2022-10-26T04:20:58.641Z,2.20
2022-10-26T04:25:56.539Z,2.77
2022-10-26T04:28:23.069Z,1.83
2022-10-26T04:30:49.541Z,2.60
2022-10-26T04:33:16.050Z,2.90
2022-10-26T04:35:42.580Z,3.27
2022-10-26T04:38:09.104Z,3.23
2022-10-26T04:40:35.630Z,3.13
2022-10-26T04:43:02.139Z,3.07
2022-10-26T04:45:28.764Z,3.33
2022-10-26T04:47:55.298Z,1.60
2022-10-26T04:50:23.751Z,1.90
2022-10-26T04:52:52.712Z,1.67
2022-10-26T04:55:19.206Z,1.30
2022-10-26T04:57:45.782Z,3.33
2022-10-26T05:00:12.292Z,2.40
2022-10-26T05:02:38.778Z,3.13
2022-10-26T05:05:07.791Z,3.70
2022-10-26T05:07:36.522Z,2.40
2022-10-26T05:10:03.001Z,2.33
2022-10-26T05:12:29.540Z,3.40
2022-10-26T05:14:56.048Z,3.40
2022-10-26T05:17:22.565Z,3.20
2022-10-26T05:19:49.068Z,2.50
2022-10-26T05:22:15.594Z,3.30
2022-10-26T05:24:42.121Z,4.67
2022-10-26T05:27:08.677Z,4.27
2022-10-26T05:29:35.214Z,8.13
2022-10-26T05:32:01.700Z,7.27
2022-10-26T05:34:28.194Z,6.50
2022-10-26T05:36:54.727Z,7.30
2022-10-26T05:39:21.252Z,9.20
2022-10-26T05:41:47.764Z,8.30
2022-10-26T05:44:14.283Z,4.87
2022-10-26T05:46:40.811Z,8.47
2022-10-26T05:49:07.395Z,4.73
2022-10-26T05:51:33.918Z,3.23
2022-10-26T05:54:00.440Z,2.00
2022-10-26T05:56:26.932Z,2.53
2022-10-26T05:58:53.406Z,2.47
2022-10-26T06:01:20.491Z,2.23
2022-10-26T06:03:47.085Z,2.37
2022-10-26T06:06:13.558Z,2.23
2022-10-26T06:08:40.047Z,2.30
2022-10-26T06:11:06.607Z,2.70
2022-10-26T06:13:33.164Z,3.97
2022-10-26T06:15:59.686Z,4.30
2022-10-26T06:18:26.251Z,2.97
2022-10-26T06:20:52.785Z,3.17
2022-10-26T06:23:19.307Z,2.00
2022-10-26T06:25:45.861Z,2.50
2022-10-26T06:28:12.350Z,2.83
2022-10-26T06:30:38.872Z,2.20
2022-10-26T06:33:06.303Z,2.30
2022-10-26T06:35:44.400Z,1.57
2022-10-26T06:38:10.970Z,1.97
2022-10-26T06:40:37.487Z,1.83
2022-10-26T06:43:04.014Z,6.27
2022-10-26T06:45:30.530Z,6.53
2022-10-26T06:47:57.046Z,3.93
2022-10-26T06:50:23.597Z,5.30
2022-10-26T06:52:50.085Z,5.23
2022-10-26T06:55:16.558Z,3.80
2022-10-26T06:57:43.066Z,3.00
2022-10-26T07:00:09.537Z,3.13
2022-10-26T07:02:36.267Z,5.17
2022-10-26T07:05:02.854Z,3.93
2022-10-26T07:07:29.421Z,6.13
2022-10-26T07:09:55.944Z,7.57
2022-10-26T07:12:22.429Z,6.47
2022-10-26T07:14:48.948Z,5.13
2022-10-26T07:17:15.468Z,4.43
2022-10-26T07:19:41.986Z,4.20
2022-10-26T07:22:08.557Z,3.53
2022-10-26T07:24:35.085Z,4.23
2022-10-26T07:27:01.630Z,5.17
2022-10-26T07:29:28.146Z,5.57
2022-10-26T07:34:26.125Z,4.77
2022-10-26T07:36:52.665Z,5.20
2022-10-26T07:39:19.153Z,4.87
2022-10-26T07:41:45.633Z,3.20
2022-10-26T07:44:12.164Z,3.93
2022-10-26T07:46:38.648Z,4.10
2022-10-26T07:49:05.206Z,4.80
2022-10-26T07:51:31.729Z,4.53
2022-10-26T07:53:58.245Z,4.13
2022-10-26T07:56:24.788Z,5.37
2022-10-26T07:58:51.261Z,5.77
2022-10-26T08:01:17.821Z,6.00
2022-10-26T08:03:44.462Z,6.37
2022-10-26T08:06:11.025Z,6.13
2022-10-26T08:08:37.558Z,5.70
2022-10-26T08:11:04.042Z,6.13
2022-10-26T08:13:30.643Z,6.30
2022-10-26T08:15:57.169Z,6.67
2022-10-26T08:18:23.637Z,5.67
2022-10-26T08:20:50.191Z,5.90
2022-10-26T08:23:16.674Z,7.17
2022-10-26T08:25:43.159Z,7.00
2022-10-26T08:28:09.708Z,7.80
2022-10-26T08:30:36.241Z,8.53
2022-10-26T08:33:02.800Z,7.37
2022-10-26T08:35:29.385Z,11.07
2022-10-26T08:37:55.961Z,5.23
2022-10-26T08:40:22.507Z,5.57
2022-10-26T08:42:49.312Z,12.53
2022-10-26T08:45:15.963Z,4.47
2022-10-26T08:47:42.484Z,5.20
2022-10-26T08:50:09.070Z,5.23
2022-10-26T08:52:35.594Z,4.73
2022-10-26T08:55:02.111Z,4.23
2022-10-26T08:57:28.658Z,4.00
2022-10-26T08:59:55.185Z,3.40
2022-10-26T09:02:21.705Z,10.43
2022-10-26T09:04:48.338Z,16.30
2022-10-26T09:07:14.874Z,5.73
2022-10-26T09:09:41.422Z,4.93
2022-10-26T09:12:07.935Z,5.30
2022-10-26T09:14:34.457Z,5.70
2022-10-26T09:17:01.005Z,7.20
2022-10-26T09:19:27.530Z,5.00
2022-10-26T09:21:54.051Z,5.00
2022-10-26T09:24:21.569Z,5.03
2022-10-26T09:26:48.275Z,5.20
2022-10-26T09:29:14.811Z,4.97
2022-10-26T09:31:43.356Z,4.37
2022-10-26T09:34:10.219Z,6.47
2022-10-26T09:36:36.738Z,4.70
2022-10-26T09:39:03.269Z,3.30
2022-10-26T09:41:32.059Z,3.93
2022-10-26T09:43:58.734Z,3.30
2022-10-26T09:46:25.248Z,2.93
2022-10-26T09:48:51.814Z,2.20
2022-10-26T09:51:18.453Z,1.90
2022-10-26T09:53:45.021Z,2.10
2022-10-26T09:56:11.570Z,1.50
2022-10-26T09:58:38.064Z,1.40
2022-10-26T10:01:04.627Z,1.90
2022-10-26T10:03:31.172Z,2.10
2022-10-26T10:05:57.748Z,1.53
2022-10-26T10:08:24.289Z,1.50
2022-10-26T10:10:50.845Z,1.00
2022-10-26T10:13:17.311Z,1.17
2022-10-26T10:15:43.795Z,1.03
2022-10-26T10:18:10.354Z,0.93
2022-10-26T10:20:36.906Z,1.20
2022-10-26T10:23:03.403Z,0.80
2022-10-26T10:28:01.314Z,0.90
2022-10-26T10:30:27.853Z,0.90
2022-10-26T10:32:54.535Z,0.77
2022-10-26T10:35:21.126Z,0.80
2022-10-26T10:37:47.602Z,0.70
2022-10-26T10:40:16.655Z,0.90
2022-10-26T10:42:45.331Z,0.87
2022-10-26T10:45:11.841Z,0.80
2022-10-26T10:47:38.385Z,1.00
2022-10-26T10:50:04.962Z,0.90
2022-10-26T10:52:31.464Z,0.80
2022-10-26T10:54:58.301Z,0.90
2022-10-26T10:57:24.871Z,0.70
2022-10-26T10:59:51.355Z,0.80
2022-10-26T11:02:18.016Z,0.70
2022-10-26T11:04:44.631Z,0.80
2022-10-26T11:07:11.174Z,1.03
2022-10-26T11:09:37.667Z,1.00
2022-10-26T11:12:04.153Z,1.00
2022-10-26T11:14:30.634Z,0.80
2022-10-26T11:16:57.203Z,0.80
2022-10-26T11:19:23.686Z,0.70
2022-10-26T11:21:50.191Z,0.80
2022-10-26T11:24:16.720Z,0.50
2022-10-26T11:26:45.973Z,0.70
2022-10-26T11:29:13.016Z,0.50
2022-10-26T11:31:39.573Z,1.00
2022-10-26T11:34:06.057Z,0.80
2022-10-26T11:36:32.571Z,0.90
2022-10-26T11:39:01.573Z,0.90
2022-10-26T11:41:29.306Z,0.80
2022-10-26T11:43:55.810Z,0.87
2022-10-26T11:46:22.450Z,0.60
2022-10-26T11:48:48.929Z,0.70
2022-10-26T11:51:15.455Z,0.60
2022-10-26T11:53:41.993Z,0.63
2022-10-26T11:56:08.518Z,0.60
2022-10-26T11:58:35.005Z,1.37
2022-10-26T12:01:01.541Z,1.10
2022-10-26T12:03:28.039Z,0.83
2022-10-26T12:05:54.553Z,0.60
2022-10-26T12:08:21.576Z,0.70
2022-10-26T12:10:48.078Z,0.50
2022-10-26T12:13:14.546Z,0.60
2022-10-26T12:18:50.264Z,0.63
2022-10-26T12:21:14.032Z,0.70
2022-10-26T12:23:51.198Z,0.67
2022-10-26T12:26:18.177Z,1.10
2022-10-26T12:28:44.693Z,0.77
2022-10-26T12:31:11.225Z,0.80
2022-10-26T12:33:37.692Z,0.80
2022-10-26T12:36:04.307Z,1.00
2022-10-26T12:38:33.873Z,0.77
2022-10-26T12:41:00.512Z,0.60
2022-10-26T12:43:27.038Z,0.70
2022-10-26T12:45:53.740Z,0.90
2022-10-26T12:48:34.624Z,0.77
2022-10-26T12:51:04.873Z,0.80
2022-10-26T12:53:31.541Z,1.00
2022-10-26T12:55:58.018Z,0.70
2022-10-26T12:58:24.508Z,0.57
2022-10-26T13:00:51.028Z,0.50
2022-10-26T13:03:17.516Z,0.67
2022-10-26T13:05:44.047Z,0.60
2022-10-26T13:08:10.565Z,0.73
2022-10-26T13:10:37.048Z,0.50
2022-10-26T13:13:03.561Z,0.70
2022-10-26T13:15:30.045Z,0.90
2022-10-26T13:17:56.564Z,0.60
2022-10-26T13:20:23.094Z,0.77
2022-10-26T13:22:49.944Z,0.70
2022-10-26T13:25:16.679Z,0.80
2022-10-26T13:27:43.340Z,0.93
2022-10-26T13:30:09.867Z,0.70
2022-10-26T13:32:36.369Z,0.90
2022-10-26T13:35:02.880Z,0.80
2022-10-26T13:37:29.549Z,0.93
2022-10-26T13:39:56.182Z,0.87
2022-10-26T13:42:22.839Z,1.00
2022-10-26T13:44:49.352Z,1.20
2022-10-26T13:47:15.909Z,1.40
2022-10-26T13:49:42.393Z,1.00
2022-10-26T13:52:08.971Z,0.80
2022-10-26T13:54:35.580Z,0.80
2022-10-26T13:57:02.126Z,0.70
2022-10-26T13:59:28.989Z,0.80
2022-10-26T14:01:55.545Z,0.67
2022-10-26T14:04:22.118Z,0.77
2022-10-26T14:06:48.619Z,0.80
2022-10-26T14:09:15.144Z,0.80
2022-10-26T14:11:41.650Z,0.87
2022-10-26T14:14:08.248Z,0.87
2022-10-26T14:16:34.716Z,0.93
2022-10-26T14:19:01.202Z,0.90
2022-10-26T14:21:27.766Z,1.13
2022-10-26T14:23:54.289Z,1.10
2022-10-26T14:26:20.836Z,0.80
2022-10-26T14:28:47.357Z,0.93
2022-10-26T14:31:16.590Z,1.00
2022-10-26T14:33:45.996Z,1.50
2022-10-26T14:36:12.504Z,1.53
2022-10-26T14:38:39.016Z,1.43
2022-10-26T14:41:05.561Z,1.90
2022-10-26T14:43:32.049Z,1.30
2022-10-26T14:45:58.597Z,1.13
2022-10-26T14:48:25.103Z,1.20
2022-10-26T14:50:51.602Z,3.30
2022-10-26T14:53:18.106Z,1.27
2022-10-26T14:55:44.692Z,2.53
2022-10-26T14:58:11.273Z,3.73
2022-10-26T15:00:37.839Z,8.50
2022-10-26T15:03:04.373Z,8.07
2022-10-26T15:05:34.747Z,7.03
2022-10-26T15:08:02.364Z,3.40
2022-10-26T15:10:28.845Z,2.10
2022-10-26T15:12:55.306Z,3.70
2022-10-26T15:17:53.286Z,1.80
2022-10-26T15:20:19.910Z,1.73
2022-10-26T15:22:46.408Z,1.43
2022-10-26T15:25:12.893Z,1.60
2022-10-26T15:27:39.378Z,1.50
2022-10-26T15:30:05.888Z,1.70
2022-10-26T15:32:32.393Z,1.60
2022-10-26T15:34:58.908Z,1.53
2022-10-26T15:37:25.469Z,1.67
2022-10-26T15:39:51.961Z,1.93
2022-10-26T15:42:18.507Z,2.23
2022-10-26T15:44:45.187Z,2.60
2022-10-26T15:47:11.673Z,2.20
2022-10-26T15:49:38.347Z,2.50
2022-10-26T15:54:32.331Z,2.80
2022-10-26T15:56:58.916Z,2.73
2022-10-26T15:59:25.679Z,2.53
2022-10-26T16:01:52.268Z,3.10
2022-10-26T16:04:18.925Z,3.60
2022-10-26T16:06:45.468Z,3.23
2022-10-26T16:09:12.053Z,3.83
2022-10-26T16:11:38.536Z,3.83
2022-10-26T16:14:05.093Z,4.10
2022-10-26T16:16:31.728Z,4.43
2022-10-26T16:19:18.420Z,4.40
2022-10-26T16:21:44.717Z,3.93
2022-10-26T16:24:11.198Z,3.77
2022-10-26T16:26:37.695Z,4.20
2022-10-26T16:29:04.229Z,4.53
2022-10-26T16:31:30.752Z,4.50
2022-10-26T16:34:00.287Z,4.07
2022-10-26T16:36:29.774Z,4.10
2022-10-26T16:38:56.354Z,4.20
2022-10-26T16:41:22.893Z,3.80
2022-10-26T16:43:49.392Z,3.60
2022-10-26T16:46:15.865Z,4.30
2022-10-26T16:48:42.370Z,4.93
2022-10-26T16:51:08.879Z,4.87
2022-10-26T16:53:35.362Z,6.00
2022-10-26T16:56:01.873Z,6.53
2022-10-26T16:58:28.380Z,6.63
2022-10-26T17:00:54.853Z,5.00
2022-10-26T17:03:21.375Z,4.63
2022-10-26T17:05:47.867Z,5.13
2022-10-26T17:08:14.345Z,4.57
2022-10-26T17:10:40.856Z,4.40
2022-10-26T17:13:07.400Z,4.20
2022-10-26T17:15:33.909Z,4.60
2022-10-26T17:18:00.393Z,4.63
2022-10-26T17:20:26.898Z,4.13
2022-10-26T17:22:53.494Z,4.20
2022-10-26T17:25:20.008Z,4.37
2022-10-26T17:27:47.546Z,3.73
2022-10-26T17:30:14.163Z,3.97
2022-10-26T17:32:40.665Z,4.10
2022-10-26T17:35:07.361Z,4.03
2022-10-26T17:37:33.853Z,4.03
2022-10-26T17:40:00.341Z,4.00
2022-10-26T17:42:26.865Z,3.80
2022-10-26T17:44:54.703Z,3.87
2022-10-26T17:47:21.391Z,4.63
2022-10-26T17:49:47.974Z,4.20
2022-10-26T17:52:14.510Z,4.40
2022-10-26T17:54:41.029Z,5.20
2022-10-26T17:57:07.515Z,5.07
2022-10-26T17:59:34.062Z,4.57
2022-10-26T18:02:00.650Z,4.53
2022-10-26T18:04:27.241Z,4.47
2022-10-26T18:06:53.740Z,3.73
2022-10-26T18:09:20.599Z,4.43
2022-10-26T18:11:48.653Z,4.40
2022-10-26T18:14:17.364Z,4.87
2022-10-26T18:16:43.889Z,5.10
2022-10-26T18:19:10.379Z,4.37
2022-10-26T18:21:36.897Z,4.37
2022-10-26T18:24:03.425Z,3.10
2022-10-26T18:26:29.923Z,3.63
2022-10-26T18:28:56.462Z,4.10
2022-10-26T18:31:23.144Z,5.00
2022-10-26T18:33:49.626Z,4.13
2022-10-26T18:36:16.161Z,3.50
2022-10-26T18:38:42.680Z,3.20
2022-10-26T18:41:09.161Z,2.57
2022-10-26T18:43:35.668Z,2.80
2022-10-26T18:46:02.154Z,3.30
2022-10-26T18:48:28.686Z,3.63
2022-10-26T18:50:55.185Z,4.33
2022-10-26T18:53:21.660Z,4.00
2022-10-26T18:55:48.141Z,5.40
2022-10-26T18:58:14.793Z,4.63
2022-10-26T19:00:41.356Z,6.10
2022-10-26T19:03:07.907Z,8.97
2022-10-26T19:05:34.454Z,20.97
2022-10-26T19:08:00.934Z,24.70
2022-10-26T19:10:27.560Z,12.77
2022-10-26T19:12:54.337Z,8.50
2022-10-26T19:15:20.945Z,6.00
2022-10-26T19:17:47.500Z,3.67
2022-10-26T19:20:13.980Z,3.30
2022-10-26T19:22:40.470Z,3.43
2022-10-26T19:25:07.035Z,3.90
2022-10-26T19:27:33.517Z,3.27
2022-10-26T19:30:00.004Z,3.00
2022-10-26T19:32:26.506Z,3.00
2022-10-26T19:34:53.012Z,5.17
2022-10-26T19:37:32.405Z,5.53
2022-10-26T19:39:58.917Z,6.37
2022-10-26T19:42:25.542Z,5.00
2022-10-26T19:44:52.077Z,5.13
2022-10-26T19:47:18.573Z,15.20
2022-10-26T19:49:45.193Z,13.60
2022-10-26T19:52:11.768Z,12.23
2022-10-26T19:54:38.293Z,11.00
2022-10-26T19:57:04.821Z,11.27
2022-10-26T19:59:31.334Z,9.27
2022-10-26T20:01:57.824Z,9.33
2022-10-26T20:04:24.322Z,7.90
2022-10-26T20:06:50.808Z,7.37
2022-10-26T20:11:48.841Z,7.33
2022-10-26T20:14:15.324Z,6.87
2022-10-26T20:16:41.802Z,8.03
2022-10-26T20:19:08.513Z,13.00
2022-10-26T20:21:34.989Z,9.20
2022-10-26T20:24:01.465Z,7.87
2022-10-26T20:26:28.639Z,6.10
2022-10-26T20:28:55.336Z,4.37
2022-10-26T20:31:21.809Z,4.60
2022-10-26T20:33:48.352Z,5.07
2022-10-26T20:36:14.837Z,7.53
2022-10-26T20:38:41.311Z,6.53
2022-10-26T20:41:10.037Z,6.33
2022-10-26T20:43:36.729Z,6.63
2022-10-26T20:46:03.209Z,6.00
2022-10-26T20:48:29.722Z,6.03
2022-10-26T20:50:56.221Z,6.23
2022-10-26T20:53:22.702Z,6.03
2022-10-26T20:55:49.541Z,6.77
2022-10-26T20:58:16.107Z,6.70
2022-10-26T21:00:42.637Z,6.10
2022-10-26T21:03:09.161Z,5.60
2022-10-26T21:05:35.713Z,6.13
2022-10-26T21:08:02.208Z,6.33
2022-10-26T21:10:28.703Z,6.00
2022-10-26T21:12:55.220Z,6.37
2022-10-26T21:15:21.695Z,4.97
2022-10-26T21:17:48.395Z,4.63
2022-10-26T21:20:15.124Z,5.27
2022-10-26T21:22:41.602Z,5.37
2022-10-26T21:25:08.082Z,4.87
2022-10-26T21:27:34.595Z,4.70
2022-10-26T21:30:01.085Z,4.80
2022-10-26T21:32:27.565Z,4.87
2022-10-26T21:34:54.057Z,5.53
2022-10-26T21:37:20.577Z,5.90
2022-10-26T21:39:47.065Z,8.97
2022-10-26T21:42:13.549Z,7.53
2022-10-26T21:44:41.233Z,6.83
2022-10-26T21:47:08.013Z,4.60
2022-10-26T21:49:34.549Z,5.50
2022-10-26T21:52:01.130Z,4.90
2022-10-26T21:54:27.651Z,3.97
2022-10-26T21:56:54.133Z,4.20
2022-10-26T21:59:20.653Z,4.73
2022-10-26T22:01:47.276Z,6.47
2022-10-26T22:04:13.796Z,5.23
2022-10-26T22:06:40.273Z,5.57
2022-10-26T22:09:06.834Z,4.90
2022-10-26T22:11:33.352Z,5.20
2022-10-26T22:13:59.884Z,5.47
2022-10-26T22:16:26.413Z,5.50
2022-10-26T22:18:52.900Z,5.50
2022-10-26T22:21:19.384Z,8.20
2022-10-26T22:23:45.912Z,6.67
2022-10-26T22:26:12.424Z,7.17
2022-10-26T22:28:41.742Z,7.17
2022-10-26T22:31:09.420Z,5.93
2022-10-26T22:33:35.949Z,4.97
2022-10-26T22:36:02.434Z,5.93
2022-10-26T22:38:28.954Z,6.93
2022-10-26T22:40:55.488Z,6.30
2022-10-26T22:43:22.004Z,6.43
2022-10-26T22:45:48.549Z,6.03
2022-10-26T22:48:15.029Z,6.70
2022-10-26T22:50:41.543Z,7.23
2022-10-26T22:53:08.051Z,7.13
2022-10-26T22:55:34.591Z,6.80
2022-10-26T22:58:01.069Z,9.23
2022-10-26T23:00:27.625Z,9.40
2022-10-26T23:02:54.250Z,12.97
2022-10-26T23:05:20.757Z,10.80
2022-10-26T23:07:47.250Z,7.70
2022-10-26T23:10:13.721Z,7.40
2022-10-26T23:12:40.276Z,5.07
2022-10-26T23:15:06.760Z,5.73
2022-10-26T23:17:33.289Z,5.50
2022-10-26T23:19:59.781Z,5.73
2022-10-26T23:22:26.290Z,6.40
2022-10-26T23:24:52.807Z,6.97
2022-10-26T23:27:19.665Z,6.83
2022-10-26T23:29:46.225Z,6.77
2022-10-26T23:32:12.713Z,6.27
2022-10-26T23:34:39.238Z,5.47
2022-10-26T23:37:05.811Z,4.97
2022-10-26T23:39:32.334Z,6.20
2022-10-26T23:41:58.817Z,4.23
2022-10-26T23:44:25.339Z,3.93
2022-10-26T23:46:51.812Z,4.77
2022-10-26T23:49:18.327Z,4.03
2022-10-26T23:51:44.820Z,3.70
2022-10-26T23:54:11.305Z,4.20
2022-10-26T23:56:37.817Z,3.00
2022-10-26T23:59:04.463Z,3.90
